createdAt,value
2023-02-11T00:03:31.314Z,66.90
2023-02-11T00:07:20.572Z,66.99
2023-02-11T00:11:09.842Z,67.20
2023-02-11T00:15:11.104Z,67.43
2023-02-11T00:19:02.003Z,67.27
2023-02-11T00:22:52.110Z,67.73
2023-02-11T00:26:56.731Z,67.77
2023-02-11T00:30:46.794Z,67.92
2023-02-11T00:34:36.924Z,67.92
2023-02-11T00:38:19.795Z,68.03
2023-02-11T00:42:09.001Z,68.32
2023-02-11T00:45:44.071Z,68.53
2023-02-11T00:49:34.137Z,68.86
2023-02-11T00:53:06.440Z,69.02
2023-02-11T00:57:00.556Z,68.96
2023-02-11T01:05:22.093Z,69.29
2023-02-11T01:09:11.655Z,69.43
2023-02-11T01:13:01.066Z,69.38
2023-02-11T01:16:50.339Z,69.50
2023-02-11T01:20:39.584Z,69.65
2023-02-11T01:29:24.909Z,70.09
2023-02-11T01:33:14.818Z,70.35
2023-02-11T01:51:10.750Z,71.14
2023-02-11T01:54:58.688Z,70.97
2023-02-11T01:58:47.963Z,71.09
2023-02-11T02:07:18.525Z,71.19
2023-02-11T02:11:16.954Z,71.04
2023-02-11T02:15:06.341Z,70.94
2023-02-11T02:23:51.443Z,71.51
2023-02-11T02:27:46.466Z,71.54
2023-02-11T02:55:38.336Z,72.69
2023-02-11T02:59:36.163Z,72.71
2023-02-11T03:03:25.424Z,73.02
2023-02-11T03:26:02.034Z,74.14
2023-02-11T03:29:59.790Z,74.13
2023-02-11T03:43:28.047Z,74.85
2023-02-11T03:47:18.239Z,75.14
2023-02-11T03:51:10.788Z,75.36
2023-02-11T03:53:27.528Z,74.29
2023-02-11T03:55:01.133Z,75.73
2023-02-11T03:58:51.110Z,75.85
2023-02-11T04:15:53.417Z,76.60
2023-02-11T04:19:50.180Z,76.61
2023-02-11T04:23:39.401Z,76.88
2023-02-11T04:36:58.764Z,77.15
2023-02-11T04:40:46.987Z,77.74
2023-02-11T04:49:17.744Z,77.81
2023-02-11T05:29:32.717Z,78.52
2023-02-11T05:33:21.644Z,78.50
2023-02-11T05:37:09.606Z,78.38
2023-02-11T05:40:58.976Z,78.34
2023-02-11T05:44:50.635Z,78.04
2023-02-11T05:48:40.911Z,77.92
2023-02-11T05:52:30.311Z,77.94
2023-02-11T05:56:19.759Z,78.06
2023-02-11T06:00:09.133Z,77.67
2023-02-11T06:03:41.630Z,78.00
2023-02-11T06:07:31.194Z,77.91
2023-02-11T06:11:25.406Z,77.93
2023-02-11T06:15:16.082Z,77.98
2023-02-11T06:19:29.336Z,77.84
2023-02-11T06:23:22.229Z,77.76
2023-02-11T06:27:16.588Z,77.88
2023-02-11T06:31:05.943Z,77.87
2023-02-11T06:34:55.184Z,77.94
2023-02-11T06:43:26.351Z,77.61
2023-02-11T06:47:15.562Z,77.31
2023-02-11T06:56:10.931Z,76.93
2023-02-11T07:00:00.584Z,76.97
2023-02-11T07:08:08.786Z,76.27
2023-02-11T07:12:06.215Z,76.17
2023-02-11T07:15:55.661Z,76.02
2023-02-11T07:19:47.803Z,75.95
2023-02-11T07:23:37.127Z,75.66
2023-02-11T07:27:50.476Z,75.76
2023-02-11T07:31:39.002Z,75.30
2023-02-11T07:35:37.504Z,75.19
2023-02-11T07:39:41.814Z,74.95
2023-02-11T07:43:32.710Z,74.45
2023-02-11T07:47:21.011Z,74.44
2023-02-11T07:51:12.997Z,74.45
2023-02-11T07:55:04.799Z,74.48
2023-02-11T07:58:55.137Z,74.78
2023-02-11T08:02:44.553Z,74.69
2023-02-11T08:06:40.389Z,74.88
2023-02-11T08:10:20.553Z,74.79
2023-02-11T08:14:10.038Z,74.82
2023-02-11T08:17:59.491Z,74.91
2023-02-11T08:21:54.773Z,74.84
2023-02-11T08:25:46.082Z,74.98
2023-02-11T08:29:29.453Z,74.92
2023-02-11T08:33:23.253Z,74.97
2023-02-11T08:37:15.651Z,75.04
2023-02-11T08:41:13.762Z,74.97
2023-02-11T08:45:06.426Z,75.10
2023-02-11T08:48:59.690Z,75.38
2023-02-11T08:52:50.602Z,75.12
2023-02-11T08:56:39.848Z,75.13
2023-02-11T09:00:41.473Z,75.10
2023-02-11T09:04:31.631Z,75.23
2023-02-11T09:09:19.984Z,75.19
2023-02-11T09:12:42.326Z,75.49
2023-02-11T09:16:32.792Z,75.47
2023-02-11T09:20:26.699Z,75.59
2023-02-11T09:24:16.381Z,75.69
2023-02-11T09:28:05.973Z,75.61
2023-02-11T09:31:56.202Z,75.87
2023-02-11T09:35:45.775Z,76.05
2023-02-11T09:39:49.948Z,76.29
2023-02-11T09:43:43.364Z,76.66
2023-02-11T09:47:35.557Z,76.87
2023-02-11T09:51:25.082Z,77.08
2023-02-11T09:55:18.591Z,77.18
2023-02-11T09:59:12.855Z,77.17
2023-02-11T10:03:05.587Z,77.49
2023-02-11T10:06:58.143Z,77.67
2023-02-11T10:10:43.574Z,77.79
2023-02-11T10:14:47.552Z,78.26
2023-02-11T10:18:58.765Z,78.20
2023-02-11T10:22:53.133Z,78.23
2023-02-11T10:26:43.201Z,78.44
2023-02-11T10:30:27.612Z,78.51
2023-02-11T10:33:54.783Z,78.65
2023-02-11T10:37:44.689Z,78.78
2023-02-11T10:55:38.440Z,79.47
2023-02-11T11:04:25.513Z,79.75
2023-02-11T11:08:21.984Z,80.00
2023-02-11T11:11:45.044Z,79.92
2023-02-11T11:19:47.066Z,79.91
2023-02-11T11:28:17.485Z,79.66
2023-02-11T11:32:16.322Z,79.53
2023-02-11T11:40:22.617Z,79.81
2023-02-11T11:44:14.804Z,79.69
2023-02-11T12:02:38.716Z,79.89
2023-02-11T12:06:38.978Z,80.00
2023-02-11T12:10:39.542Z,80.14
2023-02-11T12:14:43.286Z,80.23
2023-02-11T12:18:39.945Z,80.16
2023-02-11T12:22:33.366Z,80.16
2023-02-11T12:26:31.712Z,80.18
2023-02-11T12:30:24.154Z,80.06
2023-02-11T12:34:19.093Z,80.05
2023-02-11T12:38:11.309Z,79.91
2023-02-11T12:42:14.188Z,79.86
2023-02-11T12:46:15.680Z,79.71
2023-02-11T12:50:23.375Z,79.59
2023-02-11T12:54:13.382Z,79.72
2023-02-11T13:26:15.170Z,77.55
2023-02-11T13:30:12.053Z,77.55
2023-02-11T13:34:11.550Z,77.51
2023-02-11T13:37:50.782Z,77.55
2023-02-11T13:46:26.347Z,76.85
2023-02-11T13:50:18.938Z,76.42
2023-02-11T13:54:08.503Z,76.22
2023-02-11T13:57:36.272Z,75.93
2023-02-11T14:01:34.980Z,76.02
2023-02-11T14:14:46.241Z,76.06
2023-02-11T14:18:35.596Z,76.02
2023-02-11T14:22:24.961Z,75.86
2023-02-11T14:26:19.591Z,76.05
2023-02-11T14:30:19.652Z,75.71
2023-02-11T14:34:30.910Z,75.38
2023-02-11T14:47:30.553Z,74.44
2023-02-11T14:51:24.487Z,74.29
2023-02-11T14:55:54.629Z,74.09
2023-02-11T14:59:49.625Z,74.10
2023-02-11T15:03:26.189Z,73.97
2023-02-11T15:07:25.512Z,73.36
2023-02-11T15:11:30.908Z,73.06
2023-02-11T15:15:23.275Z,72.77
2023-02-11T15:19:15.903Z,72.31
2023-02-11T15:23:05.446Z,72.30
2023-02-11T15:31:01.076Z,71.96
2023-02-11T15:34:50.858Z,71.83
2023-02-11T15:38:03.103Z,71.49
2023-02-11T15:46:30.178Z,70.68
2023-02-11T15:50:19.324Z,70.11
2023-02-11T15:59:12.379Z,69.01
2023-02-11T16:03:02.019Z,68.79
2023-02-11T16:11:45.645Z,68.30
2023-02-11T16:42:33.934Z,66.53
2023-02-11T16:46:26.585Z,66.53
2023-02-11T17:08:45.984Z,66.17
2023-02-11T17:12:38.647Z,66.34
2023-02-11T17:16:28.843Z,66.07
2023-02-11T17:20:18.641Z,66.06
2023-02-11T17:56:45.953Z,65.81
2023-02-11T18:00:18.838Z,65.82
2023-02-11T18:08:16.372Z,65.50
2023-02-11T18:12:11.187Z,65.62
2023-02-11T18:16:00.503Z,65.58
2023-02-11T18:19:49.780Z,65.72
2023-02-11T18:23:41.407Z,65.76
2023-02-11T18:27:36.598Z,65.58
2023-02-11T18:31:26.160Z,65.73
2023-02-11T18:35:16.310Z,65.61
2023-02-11T18:44:10.252Z,65.81
2023-02-11T18:48:00.237Z,66.12
2023-02-11T18:52:13.304Z,66.23
2023-02-11T18:56:03.228Z,66.58
2023-02-11T18:59:59.179Z,66.73
2023-02-11T19:03:48.590Z,66.87
2023-02-11T19:16:34.486Z,67.31
2023-02-11T19:20:51.962Z,67.47
2023-02-11T19:24:41.635Z,67.69
2023-02-11T19:28:31.228Z,68.04
2023-02-11T19:32:21.079Z,68.26
2023-02-11T19:36:10.453Z,68.31
2023-02-11T19:40:00.039Z,68.55
2023-02-11T19:52:45.705Z,69.26
2023-02-11T20:01:17.528Z,70.09
2023-02-11T20:04:42.583Z,70.49
2023-02-11T20:17:49.096Z,71.80
2023-02-11T20:21:11.636Z,72.13
2023-02-11T20:24:39.758Z,72.42
2023-02-11T20:27:32.446Z,72.90
2023-02-11T20:30:02.177Z,72.91
2023-02-11T20:32:38.329Z,73.13
2023-02-11T20:35:08.533Z,73.31
2023-02-11T20:37:38.930Z,73.43
2023-02-11T20:40:09.296Z,73.34
2023-02-11T20:44:14.714Z,73.58
2023-02-11T20:47:55.347Z,73.76
2023-02-11T20:51:44.590Z,74.30
2023-02-11T20:55:37.205Z,74.54
2023-02-11T20:59:43.249Z,74.91
2023-02-11T21:03:34.832Z,75.24
2023-02-11T21:07:24.705Z,75.39
2023-02-11T21:11:03.056Z,75.55
2023-02-11T21:14:55.004Z,75.69
2023-02-11T21:23:23.170Z,76.17
2023-02-11T21:27:00.950Z,76.42
2023-02-11T21:30:44.018Z,76.70
2023-02-11T21:34:32.263Z,77.05
2023-02-11T21:38:41.314Z,77.40
2023-02-11T21:46:51.679Z,78.44
2023-02-11T21:50:40.974Z,78.72
2023-02-11T21:54:23.730Z,79.20
2023-02-11T21:58:13.456Z,79.68
2023-02-11T22:02:09.008Z,80.03
2023-02-11T22:06:00.591Z,80.32
2023-02-11T22:19:13.602Z,81.58
2023-02-11T22:23:05.759Z,81.97
2023-02-11T22:44:56.879Z,83.66
2023-02-11T23:02:18.209Z,84.68
2023-02-11T23:09:45.442Z,84.90
2023-02-11T23:37:40.840Z,86.50
2023-02-11T23:50:43.954Z,87.61
2023-02-11T23:59:34.444Z,87.89
